Time;durP1;ratioP1;P1;durP2;ratioP2;P2;SDS_P1;SDS_P2;PMS_P1;PMS_P2;Temp;Humidity;BMP_temperature;BMP_pressure;BME280_temperature;BME280_humidity;BME280_pressure;Samples;Min_cycle;Max_cycle;Signal;HPM_P1;HPM_P2
2023/03/08 00:00:59;;;;;;;;;;;-0.40;99.90;;;;;;4937285;29;1067;-61
2023/03/08 00:03:25;;;;;;;;;;;-0.30;99.90;;;;;;4937163;29;848;-63
2023/03/08 00:05:51;;;;;;;;;;;-0.40;99.90;;;;;;4954040;29;1208;-63
2023/03/08 00:08:18;;;;;;;;;;;-0.30;99.90;;;;;;4956083;29;1006;-62
2023/03/08 00:10:44;;;;;;;;;;;-0.40;99.90;;;;;;4956458;29;1922;-62
2023/03/08 00:13:11;;;;;;;;;;;-0.30;99.90;;;;;;4956492;29;972;-61
2023/03/08 00:15:37;;;;;;;;;;;-0.40;99.90;;;;;;4940554;29;1144;-62
2023/03/08 00:18:04;;;;;;;;;;;-0.30;99.90;;;;;;4936695;29;988;-61
2023/03/08 00:20:30;;;;;;;;;;;-0.30;99.90;;;;;;4936957;29;1015;-62
2023/03/08 00:22:56;;;;;;;;;;;-0.40;99.90;;;;;;4936894;29;1670;-62
2023/03/08 00:25:23;;;;;;;;;;;-0.40;99.90;;;;;;4949471;29;1199;-61
2023/03/08 00:27:49;;;;;;;;;;;-0.30;99.90;;;;;;4955672;29;1087;-61
2023/03/08 00:30:15;;;;;;;;;;;-0.30;99.90;;;;;;4955537;29;1910;-62
2023/03/08 00:32:41;;;;;;;;;;;-0.50;99.90;;;;;;4955982;29;1070;-62
2023/03/08 00:35:08;;;;;;;;;;;-0.40;99.90;;;;;;4944614;29;1104;-61
2023/03/08 00:37:34;;;;;;;;;;;-0.30;99.90;;;;;;4936184;29;1019;-62
2023/03/08 00:40:00;;;;;;;;;;;-0.50;99.90;;;;;;4936778;29;1015;-63
2023/03/08 00:42:26;;;;;;;;;;;-0.40;99.90;;;;;;4935378;29;1016;-62
2023/03/08 00:44:54;;;;;;;;;;;-0.50;99.90;;;;;;4945146;29;1270;-61
2023/03/08 00:47:20;;;;;;;;;;;-0.40;99.90;;;;;;4955293;29;1023;-62
2023/03/08 00:49:46;;;;;;;;;;;-0.50;99.90;;;;;;4955761;29;871;-61
2023/03/08 00:52:12;;;;;;;;;;;-0.50;99.90;;;;;;4955472;29;1979;-61
2023/03/08 00:54:38;;;;;;;;;;;-0.70;99.90;;;;;;4947049;29;1216;-62
2023/03/08 00:57:04;;;;;;;;;;;-0.70;99.90;;;;;;4935506;29;1115;-61
2023/03/08 00:59:32;;;;;;;;;;;-0.70;99.90;;;;;;4936121;29;1014;-62
2023/03/08 01:01:59;;;;;;;;;;;-0.60;99.90;;;;;;4936255;29;1003;-61
2023/03/08 01:04:25;;;;;;;;;;;-0.60;99.90;;;;;;4941326;29;1220;-62
2023/03/08 01:06:52;;;;;;;;;;;-0.70;99.90;;;;;;4954934;29;1046;-62
2023/03/08 01:09:18;;;;;;;;;;;-0.60;99.90;;;;;;4955175;29;1007;-62
2023/03/08 01:11:44;;;;;;;;;;;-0.70;99.90;;;;;;4954647;29;1964;-62
2023/03/08 01:14:10;;;;;;;;;;;-0.70;99.90;;;;;;4951867;29;1175;-62
2023/03/08 01:16:36;;;;;;;;;;;-0.70;99.90;;;;;;4936062;29;896;-62
2023/03/08 01:19:03;;;;;;;;;;;-0.70;99.90;;;;;;4935517;29;738;-63
2023/03/08 01:21:30;;;;;;;;;;;-0.70;99.90;;;;;;4935890;29;1015;-62
2023/03/08 01:23:56;;;;;;;;;;;-0.70;99.90;;;;;;4936600;29;1113;-61
2023/03/08 01:26:23;;;;;;;;;;;-0.80;99.90;;;;;;4955092;29;1022;-63
2023/03/08 01:28:50;;;;;;;;;;;-0.80;99.90;;;;;;4954361;29;1026;-63
2023/03/08 01:31:18;;;;;;;;;;;-0.70;99.90;;;;;;4954638;29;1968;-63
2023/03/08 01:33:44;;;;;;;;;;;-0.70;99.90;;;;;;4954891;29;1163;-62
2023/03/08 01:36:12;;;;;;;;;;;-0.70;99.90;;;;;;4936297;29;1224;-62
2023/03/08 01:38:38;;;;;;;;;;;-0.80;99.90;;;;;;4935125;29;944;-62
2023/03/08 01:41:05;;;;;;;;;;;-0.70;99.90;;;;;;4934491;29;932;-61
2023/03/08 01:43:35;;;;;;;;;;;-0.80;99.90;;;;;;4935462;29;1024;-61
2023/03/08 01:46:05;;;;;;;;;;;-0.80;99.90;;;;;;4952863;29;1180;-61
2023/03/08 01:48:35;;;;;;;;;;;-0.80;99.90;;;;;;4954240;29;1090;-61
2023/03/08 01:51:01;;;;;;;;;;;-0.80;99.90;;;;;;4953909;28;1903;-62
2023/03/08 01:53:28;;;;;;;;;;;-0.70;99.90;;;;;;4954560;29;852;-62
2023/03/08 01:55:54;;;;;;;;;;;-0.70;99.90;;;;;;4937769;29;1124;-62
2023/03/08 01:58:20;;;;;;;;;;;-0.80;99.90;;;;;;4934812;29;884;-63
2023/03/08 02:00:46;;;;;;;;;;;-0.70;99.90;;;;;;4935188;29;796;-62
2023/03/08 02:03:12;;;;;;;;;;;-0.70;99.90;;;;;;4935079;29;1106;-62
2023/03/08 02:05:40;;;;;;;;;;;-0.70;99.90;;;;;;4949352;29;1152;-62
2023/03/08 02:08:06;;;;;;;;;;;-0.80;99.90;;;;;;4954006;28;836;-62
2023/03/08 02:10:34;;;;;;;;;;;-0.70;99.90;;;;;;4954035;29;1970;-61
2023/03/08 02:13:01;;;;;;;;;;;-0.80;99.90;;;;;;4954016;29;1780;-61
2023/03/08 02:15:27;;;;;;;;;;;-0.70;99.90;;;;;;4940985;29;1605;-62
2023/03/08 02:17:54;;;;;;;;;;;-0.70;99.90;;;;;;4934748;29;951;-61
2023/03/08 02:20:27;;;;;;;;;;;-0.80;99.90;;;;;;4935010;29;1003;-61
2023/03/08 02:22:53;;;;;;;;;;;-0.90;99.90;;;;;;4934912;29;932;-62
2023/03/08 02:25:21;;;;;;;;;;;-0.80;99.90;;;;;;4946372;29;1203;-62
2023/03/08 02:27:47;;;;;;;;;;;-0.80;99.90;;;;;;4953795;28;975;-62
2023/03/08 02:30:16;;;;;;;;;;;-0.80;99.90;;;;;;4954036;29;976;-62
2023/03/08 02:32:42;;;;;;;;;;;-0.90;99.90;;;;;;4954076;28;1973;-63
2023/03/08 02:35:08;;;;;;;;;;;-0.80;99.90;;;;;;4943655;29;1177;-62
2023/03/08 02:37:34;;;;;;;;;;;-0.90;99.90;;;;;;4934253;29;1075;-63
2023/03/08 02:40:01;;;;;;;;;;;-0.90;99.90;;;;;;4934692;29;1107;-62
2023/03/08 02:42:27;;;;;;;;;;;-0.90;99.90;;;;;;4934839;29;999;-62
2023/03/08 02:44:58;;;;;;;;;;;-0.90;99.90;;;;;;4942589;29;1164;-62
2023/03/08 02:47:24;;;;;;;;;;;-0.90;99.90;;;;;;4953577;29;999;-62
2023/03/08 02:49:51;;;;;;;;;;;-0.80;99.90;;;;;;4954041;29;896;-62
2023/03/08 02:52:17;;;;;;;;;;;-0.80;99.90;;;;;;4953942;29;1903;-63
2023/03/08 02:54:43;;;;;;;;;;;-0.80;99.90;;;;;;4947125;29;1163;-62
2023/03/08 02:57:09;;;;;;;;;;;-0.80;99.90;;;;;;4934302;29;1051;-62
2023/03/08 02:59:35;;;;;;;;;;;-0.80;99.90;;;;;;4934684;29;907;-62
2023/03/08 03:02:02;;;;;;;;;;;-0.90;99.90;;;;;;4934585;29;876;-61
2023/03/08 03:04:29;;;;;;;;;;;-0.90;99.90;;;;;;4941129;29;1168;-62
2023/03/08 03:06:55;;;;;;;;;;;-1.00;99.90;;;;;;4956953;28;785;-62
2023/03/08 03:09:21;;;;;;;;;;;-0.90;99.90;;;;;;4957298;29;956;-62
2023/03/08 03:11:47;;;;;;;;;;;-1.00;99.90;;;;;;4956853;29;1910;-61
2023/03/08 03:14:14;;;;;;;;;;;-1.00;99.90;;;;;;4953557;29;1227;-62
2023/03/08 03:16:40;;;;;;;;;;;-0.90;99.90;;;;;;4937447;29;1046;-62
2023/03/08 03:19:06;;;;;;;;;;;-1.00;99.90;;;;;;4938189;29;1078;-61
2023/03/08 03:21:32;;;;;;;;;;;-1.00;99.90;;;;;;4937985;29;1020;-61
2023/03/08 03:23:58;;;;;;;;;;;-1.00;99.90;;;;;;4937878;29;1392;-63
2023/03/08 03:26:24;;;;;;;;;;;-1.00;99.90;;;;;;4953488;29;1100;-61
2023/03/08 03:28:51;;;;;;;;;;;-1.00;99.90;;;;;;4937306;29;1795;-61
2023/03/08 03:31:19;;;;;;;;;;;-0.90;99.90;;;;;;4938140;29;1965;-62
2023/03/08 03:33:46;;;;;;;;;;;-1.00;99.90;;;;;;4937798;29;996;-63
2023/03/08 03:36:13;;;;;;;;;;;-1.00;99.90;;;;;;4955674;29;1199;-62
2023/03/08 03:38:40;;;;;;;;;;;-1.00;99.90;;;;;;4956379;29;808;-62
2023/03/08 03:41:08;;;;;;;;;;;-1.00;99.90;;;;;;4956806;29;1003;-61
2023/03/08 03:43:34;;;;;;;;;;;-1.00;99.90;;;;;;4956843;29;1042;-63
2023/03/08 03:46:01;;;;;;;;;;;-1.00;99.90;;;;;;4939928;29;1271;-61
2023/03/08 03:48:28;;;;;;;;;;;-1.10;99.90;;;;;;4937276;29;1011;-62
2023/03/08 03:50:59;;;;;;;;;;;-1.10;99.90;;;;;;4937421;29;1964;-62
2023/03/08 03:53:26;;;;;;;;;;;-1.00;99.90;;;;;;4937545;29;892;-62
2023/03/08 03:55:53;;;;;;;;;;;-1.00;99.90;;;;;;4952416;29;1810;-62
2023/03/08 03:58:19;;;;;;;;;;;-1.10;99.90;;;;;;4956178;29;927;-62
2023/03/08 04:00:45;;;;;;;;;;;-1.10;99.90;;;;;;4956399;29;1058;-63
2023/03/08 04:03:11;;;;;;;;;;;-1.00;99.90;;;;;;4956548;29;1016;-62
2023/03/08 04:05:38;;;;;;;;;;;-1.10;99.90;;;;;;4943054;29;1177;-62
2023/03/08 04:08:07;;;;;;;;;;;-1.00;99.90;;;;;;4936578;29;1047;-61
2023/03/08 04:10:34;;;;;;;;;;;-1.10;99.90;;;;;;4942491;29;1326;-62
2023/03/08 04:13:00;;;;;;;;;;;-1.10;99.90;;;;;;4956484;29;2298;-62
2023/03/08 04:15:26;;;;;;;;;;;-1.10;99.90;;;;;;4943434;28;1171;-62
2023/03/08 04:17:52;;;;;;;;;;;-1.10;99.90;;;;;;4936484;29;1015;-63
2023/03/08 04:20:19;;;;;;;;;;;-1.10;99.90;;;;;;4936063;29;745;-62
2023/03/08 04:22:45;;;;;;;;;;;-1.10;99.90;;;;;;4937153;29;1019;-62
2023/03/08 04:25:11;;;;;;;;;;;-1.20;99.90;;;;;;4946334;29;1204;-61
2023/03/08 04:27:37;;;;;;;;;;;-1.10;99.90;;;;;;4955720;29;1011;-62
2023/03/08 04:30:04;;;;;;;;;;;-1.10;99.90;;;;;;4955965;29;1085;-63
2023/03/08 04:32:31;;;;;;;;;;;-1.10;99.90;;;;;;4955874;29;1906;-63
2023/03/08 04:34:57;;;;;;;;;;;-1.10;99.90;;;;;;4948097;28;1180;-62
2023/03/08 04:37:24;;;;;;;;;;;-1.10;99.90;;;;;;4936276;29;880;-61
2023/03/08 04:39:50;;;;;;;;;;;-1.10;99.90;;;;;;4936225;29;1055;-62
2023/03/08 04:42:16;;;;;;;;;;;-1.20;99.90;;;;;;4936546;29;770;-62
2023/03/08 04:44:42;;;;;;;;;;;-1.20;99.90;;;;;;4941635;29;1156;-62
2023/03/08 04:47:08;;;;;;;;;;;-1.20;99.90;;;;;;4955168;29;1038;-61
2023/03/08 04:49:34;;;;;;;;;;;-1.10;99.90;;;;;;4955831;29;1043;-63
2023/03/08 04:52:01;;;;;;;;;;;-1.10;99.90;;;;;;4955075;29;1910;-62
2023/03/08 04:54:27;;;;;;;;;;;-1.10;99.90;;;;;;4951958;29;1231;-63
2023/03/08 04:56:53;;;;;;;;;;;-1.10;99.90;;;;;;4934832;29;1019;-62
2023/03/08 04:59:19;;;;;;;;;;;-1.20;99.90;;;;;;4936096;29;1230;-62
2023/03/08 05:01:45;;;;;;;;;;;-1.20;99.90;;;;;;4935984;29;1162;-64
2023/03/08 05:04:11;;;;;;;;;;;-1.20;99.90;;;;;;4936267;29;1160;-62
2023/03/08 05:06:38;;;;;;;;;;;-1.10;99.90;;;;;;4954520;29;1116;-62
2023/03/08 05:09:04;;;;;;;;;;;-1.30;99.90;;;;;;4955329;29;792;-61
2023/03/08 05:11:31;;;;;;;;;;;-1.30;99.90;;;;;;4954670;28;1915;-63
2023/03/08 05:13:57;;;;;;;;;;;-1.20;99.90;;;;;;4941558;29;1149;-63
2023/03/08 05:16:24;;;;;;;;;;;-1.20;99.90;;;;;;4936272;29;1235;-62
2023/03/08 05:18:50;;;;;;;;;;;-1.20;99.90;;;;;;4935731;29;1280;-61
2023/03/08 05:21:18;;;;;;;;;;;-1.30;99.90;;;;;;4935492;29;1445;-61
2023/03/08 05:23:44;;;;;;;;;;;-1.30;99.90;;;;;;4934678;29;1524;-62
2023/03/08 05:26:11;;;;;;;;;;;-1.30;99.90;;;;;;4952071;28;1176;-62
2023/03/08 05:28:37;;;;;;;;;;;-1.40;99.90;;;;;;4954587;29;967;-62
2023/03/08 05:31:06;;;;;;;;;;;-1.30;99.90;;;;;;4954650;28;1019;-61
2023/03/08 05:33:33;;;;;;;;;;;-1.30;99.90;;;;;;4954672;29;1914;-61
2023/03/08 05:35:59;;;;;;;;;;;-1.20;99.90;;;;;;4938004;29;1180;-61
2023/03/08 05:38:26;;;;;;;;;;;-1.20;99.90;;;;;;4934048;29;1019;-61
2023/03/08 05:40:52;;;;;;;;;;;-1.30;99.90;;;;;;4935345;29;804;-61
2023/03/08 05:43:18;;;;;;;;;;;-1.30;99.90;;;;;;4935259;29;1010;-62
2023/03/08 05:46:03;;;;;;;;;;;-1.30;99.90;;;;;;4948503;29;1236;-62
2023/03/08 05:48:30;;;;;;;;;;;-1.40;99.90;;;;;;4953730;29;1059;-62
2023/03/08 05:50:56;;;;;;;;;;;-1.30;99.90;;;;;;4954837;29;980;-61
2023/03/08 05:53:23;;;;;;;;;;;-1.30;99.90;;;;;;4954093;29;1903;-62
2023/03/08 05:55:49;;;;;;;;;;;-1.30;99.90;;;;;;4941982;29;1152;-61
2023/03/08 05:58:15;;;;;;;;;;;-1.30;99.90;;;;;;4941774;29;1281;-62
2023/03/08 06:00:41;;;;;;;;;;;-1.30;99.90;;;;;;4944843;28;1376;-61
2023/03/08 06:03:08;;;;;;;;;;;-1.40;99.90;;;;;;4945822;29;1357;-61
2023/03/08 06:05:34;;;;;;;;;;;-1.40;99.90;;;;;;4944235;29;1395;-61
2023/03/08 06:08:00;;;;;;;;;;;-1.40;99.90;;;;;;4944339;28;1345;-63
2023/03/08 06:10:26;;;;;;;;;;;-1.40;99.90;;;;;;4945411;29;1371;-61
2023/03/08 06:12:52;;;;;;;;;;;-1.50;99.90;;;;;;4942470;29;1915;-62
2023/03/08 06:15:18;;;;;;;;;;;-1.20;99.90;;;;;;4943377;29;1317;-62
2023/03/08 06:17:45;;;;;;;;;;;-1.50;99.90;;;;;;4935877;29;1647;-62
2023/03/08 06:20:11;;;;;;;;;;;-1.40;99.90;;;;;;4935712;29;1524;-62
2023/03/08 06:22:37;;;;;;;;;;;-1.50;99.90;;;;;;4935792;29;738;-61
2023/03/08 06:25:03;;;;;;;;;;;-1.40;99.90;;;;;;4938955;29;1822;-63
2023/03/08 06:27:30;;;;;;;;;;;-1.40;99.90;;;;;;4944368;29;1372;-62
2023/03/08 06:29:56;;;;;;;;;;;-1.40;99.90;;;;;;4944168;29;1353;-62
2023/03/08 06:32:22;;;;;;;;;;;-1.50;99.90;;;;;;4936309;29;1903;-61
2023/03/08 06:34:48;;;;;;;;;;;-1.50;99.90;;;;;;4941020;29;1231;-60
2023/03/08 06:37:15;;;;;;;;;;;-1.50;99.90;;;;;;4954822;28;1306;-61
2023/03/08 06:39:41;;;;;;;;;;;-1.50;99.90;;;;;;4958722;28;1062;-61
2023/03/08 06:42:07;;;;;;;;;;;-1.50;99.90;;;;;;4958431;29;1149;-62
2023/03/08 06:44:35;;;;;;;;;;;-1.50;99.90;;;;;;4954578;28;1210;-61
2023/03/08 06:47:01;;;;;;;;;;;-1.40;99.90;;;;;;4939317;29;936;-61
2023/03/08 06:49:27;;;;;;;;;;;-1.40;99.90;;;;;;4939371;29;826;-61
2023/03/08 06:51:53;;;;;;;;;;;-1.30;99.90;;;;;;4939231;29;1898;-60
2023/03/08 06:54:20;;;;;;;;;;;-1.20;99.90;;;;;;4942515;29;1326;-62
2023/03/08 06:56:46;;;;;;;;;;;-1.20;99.90;;;;;;4955423;29;1305;-61
2023/03/08 06:59:13;;;;;;;;;;;-1.20;99.90;;;;;;4951780;29;1290;-62
2023/03/08 07:01:39;;;;;;;;;;;-1.00;99.90;;;;;;4958218;29;845;-61
2023/03/08 07:04:05;;;;;;;;;;;-1.10;99.90;;;;;;4957865;29;1160;-61
2023/03/08 07:06:31;;;;;;;;;;;-1.20;99.90;;;;;;4939071;29;1272;-61
2023/03/08 07:08:58;;;;;;;;;;;-1.00;99.90;;;;;;4939041;29;900;-60
2023/03/08 07:11:25;;;;;;;;;;;-1.00;99.90;;;;;;4938504;29;1169;-60
2023/03/08 07:13:52;;;;;;;;;;;-1.00;99.90;;;;;;4942994;29;1903;-60
2023/03/08 07:16:18;;;;;;;;;;;-1.00;99.90;;;;;;4945372;29;1231;-60
2023/03/08 07:18:44;;;;;;;;;;;-1.00;99.90;;;;;;4947618;28;1568;-61
2023/03/08 07:21:11;;;;;;;;;;;-1.00;99.90;;;;;;4947736;29;1365;-59
2023/03/08 07:23:37;;;;;;;;;;;-1.00;99.90;;;;;;4943401;28;1317;-61
2023/03/08 07:26:04;;;;;;;;;;;-0.90;99.90;;;;;;4947840;29;1385;-60
2023/03/08 07:28:31;;;;;;;;;;;-1.00;99.90;;;;;;4946377;29;1361;-61
2023/03/08 07:30:57;;;;;;;;;;;-1.10;99.90;;;;;;4956696;29;1318;-61
2023/03/08 07:33:23;;;;;;;;;;;-1.00;99.90;;;;;;4948283;29;1906;-61
2023/03/08 07:35:49;;;;;;;;;;;-1.00;99.90;;;;;;4947520;29;1420;-61
2023/03/08 07:38:15;;;;;;;;;;;-1.00;99.90;;;;;;4943662;29;1780;-62
2023/03/08 07:40:42;;;;;;;;;;;-1.10;99.90;;;;;;4949690;29;1893;-59
2023/03/08 07:43:08;;;;;;;;;;;-1.10;99.90;;;;;;4946048;29;1073;-60
2023/03/08 07:45:37;;;;;;;;;;;-1.10;99.90;;;;;;4943046;29;1418;-60
2023/03/08 07:48:03;;;;;;;;;;;-1.00;99.90;;;;;;4941535;29;1286;-61
2023/03/08 07:50:29;;;;;;;;;;;-1.00;99.90;;;;;;4943259;28;1077;-60
2023/03/08 07:52:55;;;;;;;;;;;-0.90;99.90;;;;;;4938441;29;1964;-61
2023/03/08 07:55:21;;;;;;;;;;;-0.90;99.90;;;;;;4947192;29;1141;-61
2023/03/08 07:57:47;;;;;;;;;;;-0.90;99.90;;;;;;4947422;29;1144;-61
2023/03/08 08:00:14;;;;;;;;;;;-0.90;99.90;;;;;;4938056;29;789;-61
2023/03/08 08:02:40;;;;;;;;;;;-0.80;99.90;;;;;;4938104;29;1027;-61
2023/03/08 08:05:06;;;;;;;;;;;-0.90;99.90;;;;;;4946341;29;1768;-60
2023/03/08 08:07:32;;;;;;;;;;;-0.90;99.90;;;;;;4957279;28;983;-61
2023/03/08 08:09:58;;;;;;;;;;;-0.80;99.90;;;;;;4957853;29;996;-61
2023/03/08 08:12:25;;;;;;;;;;;-1.00;99.90;;;;;;4957229;29;1906;-61
2023/03/08 08:14:51;;;;;;;;;;;-0.90;99.90;;;;;;4947650;29;1029;-61
2023/03/08 08:17:18;;;;;;;;;;;-0.90;99.90;;;;;;4938016;29;1723;-61
2023/03/08 08:19:45;;;;;;;;;;;-0.80;99.90;;;;;;4938803;29;1063;-62
2023/03/08 08:22:11;;;;;;;;;;;-0.70;99.90;;;;;;4938456;29;833;-61
2023/03/08 08:24:37;;;;;;;;;;;-0.70;99.90;;;;;;4940999;29;1136;-61
2023/03/08 08:27:03;;;;;;;;;;;-0.80;99.90;;;;;;4957057;29;1019;-63
2023/03/08 08:29:29;;;;;;;;;;;-0.70;99.90;;;;;;4957506;29;801;-62
2023/03/08 08:31:56;;;;;;;;;;;-0.70;99.90;;;;;;4957292;29;1902;-63
2023/03/08 08:34:23;;;;;;;;;;;-0.80;99.90;;;;;;4955728;29;1239;-62
2023/03/08 08:36:49;;;;;;;;;;;-0.80;99.90;;;;;;4936805;29;1059;-59
2023/03/08 08:39:15;;;;;;;;;;;-0.80;99.90;;;;;;4936920;29;1427;-63
2023/03/08 08:41:41;;;;;;;;;;;-0.80;99.90;;;;;;4938319;29;1136;-61
2023/03/08 08:44:07;;;;;;;;;;;-0.70;99.90;;;;;;4937865;29;1050;-62
2023/03/08 08:46:34;;;;;;;;;;;-0.60;99.90;;;;;;4955235;29;1173;-64
2023/03/08 08:49:00;;;;;;;;;;;-0.40;99.90;;;;;;4945791;29;1067;-63
2023/03/08 08:51:27;;;;;;;;;;;-0.30;99.90;;;;;;4937771;29;991;-62
2023/03/08 08:53:53;;;;;;;;;;;-0.20;99.90;;;;;;4937534;29;1915;-61
2023/03/08 08:56:21;;;;;;;;;;;-0.20;99.90;;;;;;4952850;29;1588;-61
2023/03/08 08:58:47;;;;;;;;;;;0.00;99.90;;;;;;4956533;29;1123;-61
2023/03/08 09:01:16;;;;;;;;;;;0.00;99.90;;;;;;4956587;28;848;-61
2023/03/08 09:03:43;;;;;;;;;;;0.10;99.90;;;;;;4955702;29;1012;-62
2023/03/08 09:06:10;;;;;;;;;;;0.10;99.90;;;;;;4939872;29;1626;-63
2023/03/08 09:08:36;;;;;;;;;;;0.20;99.90;;;;;;4937436;29;1066;-62
2023/03/08 09:11:07;;;;;;;;;;;0.20;99.90;;;;;;4937186;29;1256;-63
2023/03/08 09:13:34;;;;;;;;;;;0.20;99.90;;;;;;4937214;29;1910;-63
2023/03/08 09:16:00;;;;;;;;;;;0.20;99.90;;;;;;4950203;29;1164;-63
2023/03/08 09:18:26;;;;;;;;;;;0.40;99.90;;;;;;4956066;29;980;-62
2023/03/08 09:20:52;;;;;;;;;;;0.30;99.90;;;;;;4939298;29;1134;-62
2023/03/08 09:23:19;;;;;;;;;;;0.20;99.90;;;;;;4954618;29;1468;-61
2023/03/08 09:25:53;;;;;;;;;;;0.30;99.90;;;;;;4941872;29;1765;-62
2023/03/08 09:28:19;;;;;;;;;;;0.40;99.90;;;;;;4946782;29;1423;-60
2023/03/08 09:30:45;;;;;;;;;;;0.40;99.90;;;;;;4935672;29;928;-62
2023/03/08 09:33:11;;;;;;;;;;;0.60;99.90;;;;;;4936975;29;1907;-61
2023/03/08 09:35:38;;;;;;;;;;;0.60;99.90;;;;;;4946237;29;1161;-60
2023/03/08 09:38:04;;;;;;;;;;;0.60;99.90;;;;;;4955329;29;1146;-61
2023/03/08 09:40:32;;;;;;;;;;;0.50;99.90;;;;;;4955961;29;1003;-60
2023/03/08 09:43:02;;;;;;;;;;;0.60;99.90;;;;;;4955987;29;896;-62
2023/03/08 09:45:29;;;;;;;;;;;0.80;99.90;;;;;;4945337;29;1133;-60
2023/03/08 09:47:56;;;;;;;;;;;0.90;99.90;;;;;;4938613;29;1073;-60
2023/03/08 09:50:25;;;;;;;;;;;0.90;99.90;;;;;;4940211;29;1069;-61
2023/03/08 09:53:11;;;;;;;;;;;0.80;99.90;;;;;;4936747;29;1911;-60
2023/03/08 09:55:43;;;;;;;;;;;0.90;99.90;;;;;;4946312;29;1217;-60
2023/03/08 09:58:19;;;;;;;;;;;1.00;99.90;;;;;;4955424;29;1014;-61
2023/03/08 10:00:46;;;;;;;;;;;0.90;99.90;;;;;;4955814;28;1018;-61
2023/03/08 10:03:15;;;;;;;;;;;1.10;99.90;;;;;;4955733;29;835;-61
2023/03/08 10:05:49;;;;;;;;;;;1.10;99.90;;;;;;4950091;29;1341;-61
2023/03/08 10:08:16;;;;;;;;;;;1.20;99.90;;;;;;4954380;29;1269;-62
2023/03/08 10:10:56;;;;;;;;;;;1.40;99.90;;;;;;4955604;28;1087;-60
2023/03/08 10:13:27;;;;;;;;;;;1.30;99.90;;;;;;4955229;28;1910;-59
2023/03/08 10:16:03;;;;;;;;;;;1.60;99.90;;;;;;4942971;29;1247;-60
2023/03/08 10:18:35;;;;;;;;;;;1.60;99.90;;;;;;4935315;29;996;-61
2023/03/08 10:21:02;;;;;;;;;;;1.60;99.90;;;;;;4936136;29;996;-60
2023/03/08 10:23:31;;;;;;;;;;;1.80;99.90;;;;;;4936347;29;987;-61
2023/03/08 10:25:58;;;;;;;;;;;1.90;99.90;;;;;;4948275;29;1121;-60
2023/03/08 10:28:26;;;;;;;;;;;1.90;99.90;;;;;;4955318;29;960;-61
2023/03/08 10:30:59;;;;;;;;;;;2.10;99.90;;;;;;4955473;28;996;-61
2023/03/08 10:33:29;;;;;;;;;;;2.30;99.90;;;;;;4954653;29;1974;-61
2023/03/08 10:36:05;;;;;;;;;;;2.30;99.90;;;;;;4941118;29;1153;-61
2023/03/08 10:38:32;;;;;;;;;;;2.60;99.90;;;;;;4919492;29;1116;-61
2023/03/08 10:41:00;;;;;;;;;;;2.70;99.90;;;;;;4936023;29;1000;-61
2023/03/08 10:43:33;;;;;;;;;;;2.70;99.90;;;;;;4936063;29;1030;-61
2023/03/08 10:46:04;;;;;;;;;;;2.80;99.90;;;;;;4948287;29;1132;-61
2023/03/08 10:48:30;;;;;;;;;;;2.60;99.90;;;;;;4948172;29;1085;-61
2023/03/08 10:51:00;;;;;;;;;;;2.50;99.90;;;;;;4936080;29;971;-61
2023/03/08 10:53:28;;;;;;;;;;;2.70;99.90;;;;;;4941665;29;1978;-62
2023/03/08 10:55:56;;;;;;;;;;;2.80;99.90;;;;;;4942760;28;1191;-61
2023/03/08 10:58:34;;;;;;;;;;;2.90;99.90;;;;;;4948198;29;1510;-58
2023/03/08 11:01:21;;;;;;;;;;;3.10;99.90;;;;;;4951569;29;1576;-61
2023/03/08 11:04:16;;;;;;;;;;;3.10;99.90;;;;;;4955108;29;907;-61
2023/03/08 11:06:43;;;;;;;;;;;2.80;99.90;;;;;;4939938;29;1599;-59
2023/03/08 11:09:21;;;;;;;;;;;2.90;99.90;;;;;;4946895;29;1746;-59
2023/03/08 11:11:47;;;;;;;;;;;3.00;99.90;;;;;;4944198;29;1286;-62
2023/03/08 11:14:13;;;;;;;;;;;3.10;99.90;;;;;;4947019;29;1903;-59
2023/03/08 11:16:44;;;;;;;;;;;3.20;99.90;;;;;;4943321;29;1262;-61
2023/03/08 11:19:29;;;;;;;;;;;3.30;99.90;;;;;;4945495;29;1318;-61
2023/03/08 11:22:14;;;;;;;;;;;3.30;99.90;;;;;;4952791;29;1879;-61
2023/03/08 11:24:53;;;;;;;;;;;3.20;99.90;;;;;;4954402;28;1140;-61
2023/03/08 11:27:37;;;;;;;;;;;3.20;99.90;;;;;;4939099;29;817;-61
2023/03/08 11:30:22;;;;;;;;;;;3.20;99.90;;;;;;4939794;29;1179;-60
2023/03/08 11:32:54;;;;;;;;;;;3.30;99.90;;;;;;4954584;29;1910;-62
2023/03/08 11:35:36;;;;;;;;;;;3.50;99.90;;;;;;4949793;29;1322;-61
2023/03/08 11:38:23;;;;;;;;;;;3.60;99.90;;;;;;4949459;29;1948;-61
2023/03/08 11:40:54;;;;;;;;;;;3.60;99.90;;;;;;4958259;28;995;-61
2023/03/08 11:43:32;;;;;;;;;;;3.60;99.90;;;;;;4958610;28;1027;-60
2023/03/08 11:46:05;;;;;;;;;;;3.40;99.90;;;;;;4945343;28;1182;-61
2023/03/08 11:48:34;;;;;;;;;;;3.60;99.90;;;;;;4945453;29;1110;-62
2023/03/08 11:51:08;;;;;;;;;;;3.70;99.90;;;;;;4941196;29;1247;-59
2023/03/08 11:53:54;;;;;;;;;;;3.90;99.90;;;;;;4938626;29;1990;-61
2023/03/08 11:56:27;;;;;;;;;;;4.00;99.90;;;;;;4918509;29;1232;-61
2023/03/08 11:58:53;;;;;;;;;;;3.80;99.90;;;;;;4938841;29;769;-60
2023/03/08 12:01:24;;;;;;;;;;;3.80;99.90;;;;;;4937517;29;1594;-62
2023/03/08 12:03:52;;;;;;;;;;;4.00;99.90;;;;;;4937544;29;1087;-61
2023/03/08 12:06:22;;;;;;;;;;;4.00;99.90;;;;;;4941022;29;1250;-63
2023/03/08 12:08:52;;;;;;;;;;;4.00;99.90;;;;;;4938672;29;1051;-61
2023/03/08 12:11:44;;;;;;;;;;;4.00;99.90;;;;;;4938217;29;1168;-61
2023/03/08 12:14:20;;;;;;;;;;;3.90;99.90;;;;;;4933666;29;1976;-62
2023/03/08 12:16:48;;;;;;;;;;;4.10;99.90;;;;;;4942644;29;1274;-62
2023/03/08 12:19:14;;;;;;;;;;;4.10;99.90;;;;;;4938510;29;928;-61
2023/03/08 12:21:51;;;;;;;;;;;4.10;99.90;;;;;;4938392;29;1070;-61
2023/03/08 12:24:34;;;;;;;;;;;4.00;99.90;;;;;;4936986;29;1092;-62
2023/03/08 12:27:20;;;;;;;;;;;4.00;99.90;;;;;;4936917;29;1186;-62
2023/03/08 12:29:50;;;;;;;;;;;4.10;99.90;;;;;;4938122;29;1066;-61
2023/03/08 12:32:17;;;;;;;;;;;4.20;99.90;;;;;;4938140;29;1027;-61
2023/03/08 12:34:44;;;;;;;;;;;4.30;99.90;;;;;;4938612;28;1907;-61
2023/03/08 12:37:18;;;;;;;;;;;4.30;99.90;;;;;;4956713;29;980;-61
2023/03/08 12:39:53;;;;;;;;;;;4.40;99.90;;;;;;4956963;29;1088;-62
2023/03/08 12:42:33;;;;;;;;;;;4.50;99.90;;;;;;4957072;29;1130;-62
2023/03/08 12:45:17;;;;;;;;;;;4.50;99.90;;;;;;4951496;29;1160;-62
2023/03/08 12:47:54;;;;;;;;;;;4.40;99.90;;;;;;4938635;29;1050;-61
2023/03/08 12:50:20;;;;;;;;;;;4.30;99.90;;;;;;4941239;29;1135;-61
2023/03/08 12:52:46;;;;;;;;;;;4.40;99.90;;;;;;4937021;29;1907;-60
2023/03/08 12:55:30;;;;;;;;;;;4.30;99.90;;;;;;4942018;29;1172;-61
2023/03/08 12:58:00;;;;;;;;;;;4.50;99.90;;;;;;4956523;28;956;-62
2023/03/08 13:00:31;;;;;;;;;;;4.50;99.90;;;;;;4955482;29;905;-62
2023/03/08 13:03:12;;;;;;;;;;;4.60;99.90;;;;;;4956792;28;754;-62
2023/03/08 13:05:40;;;;;;;;;;;4.40;99.90;;;;;;4952975;29;1204;-61
2023/03/08 13:08:11;;;;;;;;;;;4.30;99.90;;;;;;4956501;28;991;-60
2023/03/08 13:10:39;;;;;;;;;;;4.20;99.90;;;;;;4955266;29;1303;-61
2023/03/08 13:13:05;;;;;;;;;;;4.20;99.90;;;;;;4955182;29;1960;-62
2023/03/08 13:15:31;;;;;;;;;;;4.20;99.90;;;;;;4948285;29;1127;-61
2023/03/08 13:18:08;;;;;;;;;;;4.20;99.90;;;;;;4936943;29;940;-62
2023/03/08 13:20:40;;;;;;;;;;;4.30;99.90;;;;;;4938711;29;1208;-62
2023/03/08 13:23:07;;;;;;;;;;;4.40;99.90;;;;;;4955960;28;1382;-61
2023/03/08 13:25:51;;;;;;;;;;;4.30;99.90;;;;;;4948264;29;1140;-61
2023/03/08 13:28:18;;;;;;;;;;;4.40;99.90;;;;;;4937197;29;1036;-61
2023/03/08 13:30:52;;;;;;;;;;;4.40;99.90;;;;;;4937033;29;1142;-62
2023/03/08 13:33:21;;;;;;;;;;;4.40;99.90;;;;;;4936930;29;1911;-62
2023/03/08 13:36:01;;;;;;;;;;;4.40;99.90;;;;;;4946056;29;1259;-62
2023/03/08 13:38:28;;;;;;;;;;;4.60;99.90;;;;;;4956082;29;999;-62
2023/03/08 13:40:56;;;;;;;;;;;4.70;99.90;;;;;;4955912;28;1083;-62
2023/03/08 13:43:23;;;;;;;;;;;4.60;99.90;;;;;;4956079;29;1062;-62
2023/03/08 13:45:51;;;;;;;;;;;4.70;99.90;;;;;;4945067;28;1107;-62
2023/03/08 13:48:18;;;;;;;;;;;4.60;99.90;;;;;;4941141;29;1142;-61
2023/03/08 13:50:45;;;;;;;;;;;4.50;99.90;;;;;;4938479;29;1054;-61
2023/03/08 13:53:15;;;;;;;;;;;4.50;99.90;;;;;;4936707;29;1911;-60
2023/03/08 13:55:43;;;;;;;;;;;4.70;99.90;;;;;;4945260;29;1188;-60
2023/03/08 13:58:25;;;;;;;;;;;4.70;99.90;;;;;;4955992;29;935;-61
2023/03/08 14:01:10;;;;;;;;;;;4.60;99.90;;;;;;4938594;29;904;-61
2023/03/08 14:03:37;;;;;;;;;;;4.60;99.90;;;;;;4955702;28;1007;-61
2023/03/08 14:06:17;;;;;;;;;;;4.60;99.90;;;;;;4951939;29;1228;-61
2023/03/08 14:08:44;;;;;;;;;;;4.60;99.90;;;;;;4955110;29;1180;-61
2023/03/08 14:11:18;;;;;;;;;;;4.70;99.90;;;;;;4955689;29;1170;-60
2023/03/08 14:13:45;;;;;;;;;;;4.70;99.90;;;;;;4955444;29;1910;-61
2023/03/08 14:16:22;;;;;;;;;;;4.70;99.90;;;;;;4942160;28;1080;-61
2023/03/08 14:18:48;;;;;;;;;;;4.70;99.90;;;;;;4948656;29;1109;-63
2023/03/08 14:21:14;;;;;;;;;;;4.70;99.90;;;;;;4954431;29;1411;-62
2023/03/08 14:23:44;;;;;;;;;;;4.80;99.90;;;;;;4954628;29;1968;-62
2023/03/08 14:26:27;;;;;;;;;;;4.80;99.90;;;;;;4953376;29;1122;-62
2023/03/08 14:29:09;;;;;;;;;;;4.70;99.90;;;;;;4945222;28;1723;-61
2023/03/08 14:31:37;;;;;;;;;;;4.70;99.90;;;;;;4954254;29;1052;-61
2023/03/08 14:34:15;;;;;;;;;;;4.80;99.90;;;;;;4955272;28;1980;-62
2023/03/08 14:36:46;;;;;;;;;;;4.90;99.90;;;;;;4938461;29;1101;-62
2023/03/08 14:39:16;;;;;;;;;;;4.90;99.90;;;;;;4936461;29;1023;-61
2023/03/08 14:41:42;;;;;;;;;;;4.90;99.90;;;;;;4936665;29;1054;-62
2023/03/08 14:44:16;;;;;;;;;;;4.90;99.90;;;;;;4936041;29;1043;-62
2023/03/08 14:46:42;;;;;;;;;;;4.80;99.90;;;;;;4947670;28;1223;-61